createdAt,value
2023-04-16T00:00:40.912Z,11.30
2023-04-16T00:01:37.869Z,11.47
2023-04-16T00:02:34.753Z,11.12
2023-04-16T00:03:31.816Z,11.43
2023-04-16T00:04:28.773Z,10.85
2023-04-16T00:05:25.613Z,11.34
2023-04-16T00:06:23.377Z,11.15
2023-04-16T00:07:20.077Z,11.42
2023-04-16T00:08:16.989Z,11.41
2023-04-16T00:09:13.728Z,11.42
2023-04-16T00:10:10.790Z,11.35
2023-04-16T00:11:07.715Z,11.32
2023-04-16T00:12:05.080Z,11.32
2023-04-16T00:13:02.000Z,11.09
2023-04-16T00:13:58.977Z,11.41
2023-04-16T00:14:55.711Z,11.43
2023-04-16T00:15:52.520Z,11.33
2023-04-16T00:16:49.363Z,11.00
2023-04-16T00:17:46.281Z,11.03
2023-04-16T00:18:43.143Z,11.42
2023-04-16T00:19:39.862Z,11.41
2023-04-16T00:20:36.597Z,11.13
2023-04-16T00:21:33.403Z,11.12
2023-04-16T00:22:30.152Z,10.82
2023-04-16T00:23:26.994Z,10.88
2023-04-16T00:24:23.737Z,11.23
2023-04-16T00:25:20.793Z,11.14
2023-04-16T00:26:17.509Z,11.03
2023-04-16T00:27:14.340Z,10.93
2023-04-16T00:28:11.237Z,11.02
2023-04-16T00:29:08.376Z,10.89
2023-04-16T00:30:06.838Z,10.95
2023-04-16T00:31:03.794Z,10.97
2023-04-16T00:32:00.742Z,10.89
2023-04-16T00:32:57.513Z,10.89
2023-04-16T00:33:54.327Z,10.96
2023-04-16T00:34:51.064Z,10.37
2023-04-16T00:35:48.802Z,11.10
2023-04-16T00:36:45.535Z,11.13
2023-04-16T00:37:42.307Z,9.98
2023-04-16T00:38:39.519Z,11.02
2023-04-16T00:39:36.311Z,10.70
2023-04-16T00:40:33.070Z,10.53
2023-04-16T00:41:29.864Z,10.89
2023-04-16T00:42:27.409Z,10.95
2023-04-16T00:43:26.102Z,11.22
2023-04-16T00:44:22.867Z,11.27
2023-04-16T00:45:19.607Z,11.51
2023-04-16T00:46:19.126Z,11.26
2023-04-16T00:47:16.721Z,10.83
2023-04-16T00:48:13.459Z,11.08
2023-04-16T00:49:10.772Z,11.02
2023-04-16T00:50:08.121Z,11.10
2023-04-16T00:51:06.507Z,11.15
2023-04-16T00:52:03.468Z,10.98
2023-04-16T00:53:02.160Z,10.84
2023-04-16T00:53:59.138Z,10.48
2023-04-16T00:54:56.561Z,10.11
2023-04-16T00:55:53.852Z,10.62
2023-04-16T00:56:51.592Z,10.41
2023-04-16T00:57:48.315Z,10.24
2023-04-16T00:58:45.181Z,9.86
2023-04-16T00:59:42.283Z,10.32
2023-04-16T01:00:39.002Z,10.84
2023-04-16T01:01:36.276Z,10.81
2023-04-16T01:02:34.825Z,10.83
2023-04-16T01:03:37.871Z,10.37
2023-04-16T01:04:35.874Z,10.65
2023-04-16T01:05:32.711Z,10.81
2023-04-16T01:06:29.533Z,10.08
2023-04-16T01:07:26.270Z,10.69
2023-04-16T01:08:23.221Z,10.36
2023-04-16T01:09:20.150Z,10.52
2023-04-16T01:10:16.917Z,10.45
2023-04-16T01:11:15.518Z,10.28
2023-04-16T01:12:12.251Z,10.20
2023-04-16T01:13:09.060Z,10.15
2023-04-16T01:14:05.923Z,10.10
2023-04-16T01:15:03.402Z,10.31
2023-04-16T01:16:01.236Z,10.14
2023-04-16T01:16:58.056Z,10.61
2023-04-16T01:17:54.930Z,10.44
2023-04-16T01:18:51.712Z,9.85
2023-04-16T01:19:48.452Z,10.25
2023-04-16T01:20:46.946Z,9.76
2023-04-16T01:21:43.706Z,9.93
2023-04-16T01:22:40.626Z,10.24
2023-04-16T01:23:37.407Z,10.52
2023-04-16T01:24:35.088Z,10.28
2023-04-16T01:25:31.803Z,9.64
2023-04-16T01:26:28.544Z,10.09
2023-04-16T01:27:25.352Z,9.55
2023-04-16T01:28:23.191Z,10.24
2023-04-16T01:29:19.982Z,10.26
2023-04-16T01:30:16.752Z,9.88
2023-04-16T01:31:13.631Z,10.11
2023-04-16T01:32:10.596Z,9.80
2023-04-16T01:33:09.007Z,9.81
2023-04-16T01:34:06.136Z,10.53
2023-04-16T01:35:02.837Z,10.31
2023-04-16T01:35:59.574Z,10.44
2023-04-16T01:36:56.353Z,10.55
2023-04-16T01:37:53.258Z,10.27
2023-04-16T01:38:50.213Z,10.60
2023-04-16T01:39:47.028Z,10.14
2023-04-16T01:40:43.798Z,10.24
2023-04-16T01:41:40.858Z,10.10
2023-04-16T01:42:38.249Z,9.91
2023-04-16T01:43:35.189Z,9.69
2023-04-16T01:44:32.053Z,9.58
2023-04-16T01:45:28.908Z,9.97
2023-04-16T01:46:30.715Z,10.03
2023-04-16T01:47:27.628Z,10.00
2023-04-16T01:48:24.436Z,9.91
2023-04-16T01:49:21.207Z,9.85
2023-04-16T01:50:20.525Z,9.94
2023-04-16T01:51:17.367Z,9.60
2023-04-16T01:52:14.177Z,9.25
2023-04-16T01:53:10.940Z,9.67
2023-04-16T01:54:08.185Z,9.83
2023-04-16T01:55:05.279Z,9.83
2023-04-16T01:56:02.228Z,9.83
2023-04-16T01:56:59.012Z,9.64
2023-04-16T01:57:56.031Z,9.67
2023-04-16T01:58:53.525Z,9.52
2023-04-16T01:59:50.237Z,9.98
2023-04-16T02:00:47.089Z,10.21
2023-04-16T02:01:44.059Z,10.19
2023-04-16T02:02:41.136Z,10.09
2023-04-16T02:03:38.219Z,10.19
2023-04-16T02:04:35.210Z,10.13
2023-04-16T02:05:31.951Z,9.84
2023-04-16T02:06:28.675Z,10.11
2023-04-16T02:07:26.030Z,10.23
2023-04-16T02:08:23.282Z,10.30
2023-04-16T02:09:20.020Z,10.00
2023-04-16T02:10:16.746Z,10.48
2023-04-16T02:11:13.504Z,10.44
2023-04-16T02:12:11.869Z,10.43
2023-04-16T02:13:08.634Z,10.48
2023-04-16T02:14:05.435Z,10.27
2023-04-16T02:15:03.474Z,10.10
2023-04-16T02:16:00.436Z,9.61
2023-04-16T02:16:57.294Z,9.99
2023-04-16T02:17:56.940Z,10.04
2023-04-16T02:18:53.909Z,10.25
2023-04-16T02:19:50.854Z,10.01
2023-04-16T02:20:49.596Z,10.20
2023-04-16T02:21:46.436Z,10.67
2023-04-16T02:22:43.471Z,10.25
2023-04-16T02:23:41.414Z,10.47
2023-04-16T02:24:38.267Z,10.40
2023-04-16T02:25:48.110Z,10.62
2023-04-16T02:26:45.366Z,10.44
2023-04-16T02:27:42.101Z,10.12
2023-04-16T02:28:39.195Z,10.27
2023-04-16T02:29:35.972Z,10.24
2023-04-16T02:30:34.883Z,10.09
2023-04-16T02:31:31.841Z,9.66
2023-04-16T02:33:05.760Z,10.46
2023-04-16T02:34:03.035Z,10.46
2023-04-16T02:34:59.944Z,10.30
2023-04-16T02:35:56.643Z,9.81
2023-04-16T02:36:54.360Z,9.85
2023-04-16T02:37:51.135Z,9.94
2023-04-16T02:38:47.937Z,10.06
2023-04-16T02:39:45.136Z,9.43
2023-04-16T02:40:41.942Z,9.89
2023-04-16T02:41:38.676Z,10.01
2023-04-16T02:42:35.405Z,10.42
2023-04-16T02:43:32.180Z,10.28
2023-04-16T02:44:28.935Z,10.37
2023-04-16T02:45:25.891Z,10.17
2023-04-16T02:46:22.678Z,10.55
2023-04-16T02:47:19.558Z,9.97
2023-04-16T02:48:16.492Z,10.71
2023-04-16T02:49:13.431Z,10.56
2023-04-16T02:50:10.862Z,10.83
2023-04-16T02:51:08.016Z,10.60
2023-04-16T02:52:04.929Z,10.56
2023-04-16T02:53:01.749Z,10.56
2023-04-16T02:53:58.522Z,10.52
2023-04-16T02:54:55.373Z,10.54
2023-04-16T02:55:56.013Z,10.57
2023-04-16T02:56:52.810Z,10.38
2023-04-16T02:57:49.526Z,9.70
2023-04-16T02:58:46.225Z,9.18
2023-04-16T02:59:42.975Z,9.96
2023-04-16T03:00:39.721Z,9.35
2023-04-16T03:01:36.522Z,10.31
2023-04-16T03:02:33.456Z,10.49
2023-04-16T03:03:30.286Z,10.49
2023-04-16T03:04:27.063Z,10.61
2023-04-16T03:05:23.858Z,10.50
2023-04-16T03:06:20.641Z,10.31
2023-04-16T03:07:18.385Z,10.57
2023-04-16T03:08:15.154Z,10.67
2023-04-16T03:09:12.034Z,10.40
2023-04-16T03:10:09.374Z,10.23
2023-04-16T03:11:06.317Z,10.18
2023-04-16T03:12:03.298Z,9.72
2023-04-16T03:13:00.026Z,9.89
2023-04-16T03:13:56.790Z,9.77
2023-04-16T03:14:53.552Z,9.76
2023-04-16T03:15:50.374Z,9.82
2023-04-16T03:16:47.134Z,9.29
2023-04-16T03:17:44.020Z,9.66
2023-04-16T03:18:40.889Z,10.26
2023-04-16T03:19:37.815Z,10.52
2023-04-16T03:20:34.750Z,10.27
2023-04-16T03:21:31.787Z,9.86
2023-04-16T03:22:28.624Z,10.57
2023-04-16T03:23:25.516Z,10.60
2023-04-16T03:24:22.483Z,10.13
2023-04-16T03:25:19.283Z,10.07
2023-04-16T03:26:16.502Z,10.01
2023-04-16T03:27:13.311Z,9.76
2023-04-16T03:28:10.031Z,10.04
2023-04-16T03:29:06.911Z,9.98
2023-04-16T03:30:04.805Z,9.87
2023-04-16T03:31:01.712Z,9.63
2023-04-16T03:31:58.528Z,9.78
2023-04-16T03:32:55.660Z,9.91
2023-04-16T03:33:52.788Z,10.02
2023-04-16T03:34:49.586Z,10.03
2023-04-16T03:35:46.502Z,9.58
2023-04-16T03:36:43.236Z,10.29
2023-04-16T03:37:39.939Z,10.52
2023-04-16T03:38:36.774Z,10.64
2023-04-16T03:39:34.621Z,10.09
2023-04-16T03:40:32.007Z,10.88
2023-04-16T03:41:28.797Z,10.62
2023-04-16T03:42:25.893Z,10.79
2023-04-16T03:43:22.801Z,10.14
2023-04-16T03:44:19.554Z,9.86
2023-04-16T03:45:16.670Z,10.09
2023-04-16T03:46:13.535Z,10.12
2023-04-16T03:47:10.555Z,10.36
2023-04-16T03:48:07.312Z,10.50
2023-04-16T03:49:04.062Z,10.87
2023-04-16T03:50:00.886Z,11.04
2023-04-16T03:50:57.661Z,10.79
2023-04-16T03:51:54.554Z,10.28
2023-04-16T03:52:51.259Z,10.26
2023-04-16T03:53:48.023Z,10.64
2023-04-16T03:54:44.926Z,10.61
2023-04-16T03:55:42.300Z,10.36
2023-04-16T03:56:41.461Z,10.42
2023-04-16T03:57:38.255Z,10.81
2023-04-16T03:58:35.046Z,10.78
2023-04-16T03:59:31.837Z,10.81
2023-04-16T04:00:28.620Z,10.45
2023-04-16T04:01:25.358Z,10.62
2023-04-16T04:02:22.380Z,10.27
2023-04-16T04:03:19.453Z,10.16
2023-04-16T04:04:16.754Z,9.91
2023-04-16T04:05:13.729Z,10.28
2023-04-16T04:06:10.525Z,9.74
2023-04-16T04:07:07.307Z,10.22
2023-04-16T04:08:04.360Z,9.73
2023-04-16T04:09:01.103Z,10.80
2023-04-16T04:09:57.838Z,10.83
2023-04-16T04:10:54.580Z,10.44
2023-04-16T04:11:52.074Z,10.47
2023-04-16T04:12:48.804Z,10.38
2023-04-16T04:13:45.846Z,10.44
2023-04-16T04:14:42.651Z,10.01
2023-04-16T04:15:39.615Z,10.59
2023-04-16T04:16:36.447Z,10.95
2023-04-16T04:17:33.203Z,11.29
2023-04-16T04:18:30.046Z,11.39
2023-04-16T04:19:26.836Z,11.00
2023-04-16T04:20:24.265Z,10.79
2023-04-16T04:21:21.102Z,10.75
2023-04-16T04:22:17.921Z,11.02
2023-04-16T04:23:14.681Z,11.36
2023-04-16T04:24:11.368Z,11.61
2023-04-16T04:25:10.224Z,11.70
2023-04-16T04:26:07.525Z,11.81
2023-04-16T04:27:04.426Z,11.64
2023-04-16T04:28:01.218Z,11.38
2023-04-16T04:28:57.988Z,10.49
2023-04-16T04:29:54.676Z,11.16
2023-04-16T04:30:54.328Z,11.15
2023-04-16T04:31:51.435Z,11.20
2023-04-16T04:32:48.321Z,11.01
2023-04-16T04:33:45.147Z,10.88
2023-04-16T04:34:42.019Z,10.93
2023-04-16T04:35:44.019Z,10.66
2023-04-16T04:36:40.784Z,10.93
2023-04-16T04:37:37.535Z,10.59
2023-04-16T04:38:34.346Z,10.71
2023-04-16T04:39:31.112Z,11.03
2023-04-16T04:40:27.845Z,10.88
2023-04-16T04:41:24.706Z,11.27
2023-04-16T04:42:22.197Z,11.26
2023-04-16T04:43:19.969Z,11.21
2023-04-16T04:44:16.806Z,11.36
2023-04-16T04:45:13.588Z,11.58
2023-04-16T04:46:10.595Z,11.48
2023-04-16T04:47:07.477Z,11.61
2023-04-16T04:48:04.477Z,11.54
2023-04-16T04:49:01.277Z,11.12
2023-04-16T04:49:58.050Z,10.95
2023-04-16T04:50:54.851Z,11.04
2023-04-16T04:51:54.091Z,11.49
2023-04-16T04:52:50.987Z,11.35
2023-04-16T04:53:47.680Z,11.16
2023-04-16T04:54:44.439Z,10.73
2023-04-16T04:55:41.313Z,10.87
2023-04-16T04:56:38.192Z,11.28
2023-04-16T04:57:34.993Z,11.12
2023-04-16T04:58:31.708Z,11.08
2023-04-16T04:59:28.480Z,10.87
2023-04-16T05:00:25.260Z,10.91
2023-04-16T05:01:22.037Z,10.96
2023-04-16T05:02:19.364Z,10.88
2023-04-16T05:03:21.642Z,10.97
2023-04-16T05:04:18.575Z,11.07
2023-04-16T05:05:15.634Z,10.61
2023-04-16T05:06:12.565Z,11.02
2023-04-16T05:07:09.267Z,11.28
2023-04-16T05:08:06.589Z,11.27
2023-04-16T05:09:03.593Z,11.05
2023-04-16T05:10:00.859Z,10.71
2023-04-16T05:10:57.657Z,10.73
2023-04-16T05:11:54.375Z,10.69
2023-04-16T05:12:51.176Z,10.53
2023-04-16T05:13:47.952Z,10.58
2023-04-16T05:14:44.672Z,10.37
2023-04-16T05:15:41.537Z,10.48
2023-04-16T05:16:38.351Z,10.77
2023-04-16T05:17:35.721Z,10.38
2023-04-16T05:18:33.486Z,10.61
2023-04-16T05:19:30.370Z,10.72
2023-04-16T05:20:27.088Z,10.64
2023-04-16T05:21:24.732Z,10.75
2023-04-16T05:22:21.584Z,10.72
2023-04-16T05:23:18.321Z,10.36
2023-04-16T05:24:15.231Z,10.64
2023-04-16T05:25:12.206Z,10.86
2023-04-16T05:26:08.916Z,10.94
2023-04-16T05:27:05.637Z,10.83
2023-04-16T05:28:02.440Z,10.19
2023-04-16T05:28:59.114Z,10.81
2023-04-16T05:29:55.842Z,10.82
2023-04-16T05:30:52.618Z,10.79
2023-04-16T05:31:49.634Z,11.20
2023-04-16T05:32:46.389Z,11.48
2023-04-16T05:34:01.712Z,10.90
2023-04-16T05:34:58.561Z,10.68
2023-04-16T05:35:55.303Z,11.57
2023-04-16T05:36:54.904Z,11.28
2023-04-16T05:37:51.604Z,10.71
2023-04-16T05:38:48.573Z,11.34
2023-04-16T05:39:45.426Z,11.36
2023-04-16T05:40:42.126Z,11.18
2023-04-16T05:41:38.860Z,10.84
2023-04-16T05:42:35.651Z,10.39
2023-04-16T05:43:32.433Z,10.81
2023-04-16T05:44:29.212Z,10.54
2023-04-16T05:45:27.948Z,11.03
2023-04-16T05:46:24.976Z,11.24
2023-04-16T05:47:22.006Z,11.13
2023-04-16T05:48:20.168Z,10.61
2023-04-16T05:49:18.837Z,10.98
2023-04-16T05:50:15.823Z,11.12
2023-04-16T05:51:12.574Z,10.62
2023-04-16T05:52:10.044Z,10.67
2023-04-16T05:53:08.843Z,10.71
2023-04-16T05:54:08.667Z,11.15
2023-04-16T05:55:06.197Z,11.22
2023-04-16T05:56:03.110Z,10.99
2023-04-16T05:57:01.179Z,10.98
2023-04-16T05:57:58.188Z,10.68
2023-04-16T05:58:55.008Z,10.85
2023-04-16T05:59:51.753Z,10.91
2023-04-16T06:00:48.754Z,10.39
2023-04-16T06:01:45.724Z,10.64
2023-04-16T06:02:42.809Z,10.98
2023-04-16T06:03:39.804Z,11.02
2023-04-16T06:04:37.264Z,11.20
2023-04-16T06:05:34.054Z,11.18
2023-04-16T06:06:30.853Z,11.03
2023-04-16T06:07:27.560Z,11.43
2023-04-16T06:08:24.409Z,10.99
2023-04-16T06:09:21.265Z,11.12
2023-04-16T06:10:18.202Z,10.70
2023-04-16T06:11:15.066Z,11.07
2023-04-16T06:12:11.959Z,10.82
2023-04-16T06:13:08.691Z,11.02
2023-04-16T06:14:05.482Z,11.26
2023-04-16T06:15:02.253Z,11.12
2023-04-16T06:15:59.057Z,11.61
2023-04-16T06:16:56.409Z,11.66
2023-04-16T06:17:53.125Z,11.32
2023-04-16T06:18:49.882Z,11.41
2023-04-16T06:19:46.605Z,11.20
2023-04-16T06:20:43.550Z,11.11
2023-04-16T06:21:40.277Z,11.23
2023-04-16T06:22:37.326Z,11.08
2023-04-16T06:23:34.104Z,11.35
2023-04-16T06:24:30.850Z,11.47
2023-04-16T06:25:27.619Z,11.49
2023-04-16T06:26:24.384Z,11.66
2023-04-16T06:27:21.175Z,11.74
2023-04-16T06:28:17.967Z,11.31
2023-04-16T06:29:14.869Z,11.79
2023-04-16T06:30:13.601Z,11.90
2023-04-16T06:31:10.446Z,11.89
2023-04-16T06:32:08.069Z,11.97
2023-04-16T06:33:05.875Z,11.69
2023-04-16T06:34:02.687Z,12.07
2023-04-16T06:34:59.659Z,12.51
2023-04-16T06:35:56.784Z,12.28
2023-04-16T06:36:53.493Z,11.83
2023-04-16T06:37:50.462Z,11.89
2023-04-16T06:38:47.257Z,12.19
2023-04-16T06:39:44.029Z,12.31
2023-04-16T06:40:40.999Z,12.07
2023-04-16T06:41:37.918Z,12.13
2023-04-16T06:42:34.658Z,11.75
2023-04-16T06:43:33.510Z,11.89
2023-04-16T06:44:30.240Z,12.10
2023-04-16T06:45:27.111Z,12.20
2023-04-16T06:46:24.046Z,11.65
2023-04-16T06:47:21.194Z,12.28
2023-04-16T06:48:17.943Z,12.35
2023-04-16T06:49:14.694Z,12.57
2023-04-16T06:50:11.479Z,12.75
2023-04-16T06:51:08.521Z,12.58
2023-04-16T06:52:06.033Z,12.57
2023-04-16T06:53:03.739Z,12.80
2023-04-16T06:54:00.576Z,12.97
2023-04-16T06:54:57.436Z,12.91
2023-04-16T06:55:54.184Z,13.14
2023-04-16T06:56:51.033Z,13.28
2023-04-16T06:57:47.762Z,13.30
2023-04-16T06:58:44.455Z,13.27
2023-04-16T06:59:41.210Z,12.97
2023-04-16T07:00:38.047Z,12.59
2023-04-16T07:01:35.160Z,13.01
2023-04-16T07:02:32.132Z,13.16
2023-04-16T07:03:29.314Z,13.28
2023-04-16T07:04:26.454Z,13.37
2023-04-16T07:05:23.255Z,13.88
2023-04-16T07:06:20.004Z,14.13
2023-04-16T07:07:16.740Z,13.67
2023-04-16T07:08:13.529Z,14.27
2023-04-16T07:09:10.436Z,14.44
2023-04-16T07:10:08.259Z,14.03
2023-04-16T07:11:05.521Z,12.92
2023-04-16T07:12:02.413Z,13.29
2023-04-16T07:13:01.593Z,13.29
2023-04-16T07:13:59.045Z,13.28
2023-04-16T07:14:55.893Z,13.30
2023-04-16T07:15:52.674Z,13.12
2023-04-16T07:16:49.505Z,12.94
2023-04-16T07:17:46.337Z,12.49
2023-04-16T07:18:43.163Z,12.91
2023-04-16T07:19:39.904Z,12.86
2023-04-16T07:20:36.799Z,12.77
2023-04-16T07:21:33.595Z,13.13
2023-04-16T07:22:30.633Z,13.46
2023-04-16T07:23:27.905Z,13.67
2023-04-16T07:24:24.705Z,14.04
2023-04-16T07:25:21.507Z,13.83
2023-04-16T07:26:18.309Z,14.14
2023-04-16T07:27:15.123Z,14.26
2023-04-16T07:28:11.935Z,14.12
2023-04-16T07:29:08.973Z,14.18
2023-04-16T07:30:06.620Z,14.52
2023-04-16T07:31:03.677Z,14.16
2023-04-16T07:32:00.745Z,13.90
2023-04-16T07:32:58.117Z,13.57
2023-04-16T07:33:55.232Z,13.51
2023-04-16T07:34:52.070Z,13.86
2023-04-16T07:35:48.839Z,13.52
2023-04-16T07:36:45.695Z,13.79
2023-04-16T07:37:42.494Z,14.20
2023-04-16T07:38:39.332Z,14.33
2023-04-16T07:39:36.075Z,14.37
2023-04-16T07:40:33.474Z,14.25
2023-04-16T07:41:30.484Z,14.46
2023-04-16T07:42:28.177Z,14.09
2023-04-16T07:43:24.986Z,13.32
2023-04-16T07:44:21.808Z,13.90
2023-04-16T07:45:19.231Z,14.11
2023-04-16T07:46:16.270Z,13.94
2023-04-16T07:47:12.998Z,14.16
2023-04-16T07:48:09.749Z,14.30
2023-04-16T07:49:08.862Z,14.06
2023-04-16T07:50:06.567Z,14.58
2023-04-16T07:51:03.621Z,14.52
2023-04-16T07:52:00.516Z,14.98
2023-04-16T07:53:00.218Z,15.29
2023-04-16T07:53:57.008Z,14.80
2023-04-16T07:54:53.846Z,15.59
2023-04-16T07:55:50.945Z,15.23
2023-04-16T07:56:47.641Z,15.58
2023-04-16T07:57:44.456Z,15.68
2023-04-16T07:58:44.039Z,15.79
2023-04-16T07:59:40.883Z,15.41
2023-04-16T08:00:37.739Z,15.94
2023-04-16T08:01:34.679Z,15.46
2023-04-16T08:02:32.308Z,14.63
2023-04-16T08:03:31.794Z,13.49
2023-04-16T08:04:28.841Z,14.47
2023-04-16T08:05:25.717Z,15.18
2023-04-16T08:06:22.503Z,15.48
2023-04-16T08:07:19.254Z,15.22
2023-04-16T08:08:16.082Z,14.65
2023-04-16T08:09:12.815Z,15.14
2023-04-16T08:10:09.748Z,15.31
2023-04-16T08:11:06.566Z,15.14
2023-04-16T08:12:03.928Z,14.96
2023-04-16T08:13:01.714Z,15.22
2023-04-16T08:13:58.765Z,15.87
2023-04-16T08:14:55.611Z,16.05
2023-04-16T08:15:52.362Z,16.25
2023-04-16T08:16:49.707Z,16.14
2023-04-16T08:17:46.576Z,16.33
2023-04-16T08:18:43.375Z,15.32
2023-04-16T08:19:40.233Z,15.40
2023-04-16T08:20:37.018Z,15.44
2023-04-16T08:21:34.198Z,15.11
2023-04-16T08:22:31.024Z,15.56
2023-04-16T08:23:27.869Z,15.63
2023-04-16T08:24:24.632Z,15.63
2023-04-16T08:25:22.898Z,16.48
2023-04-16T08:26:19.936Z,16.56
2023-04-16T08:27:19.793Z,17.03
2023-04-16T08:28:17.162Z,17.18
2023-04-16T08:29:13.960Z,16.41
2023-04-16T08:30:10.920Z,16.25
2023-04-16T08:31:07.702Z,16.15
2023-04-16T08:32:04.643Z,16.34
2023-04-16T08:33:01.704Z,16.51
2023-04-16T08:33:58.517Z,16.10
2023-04-16T08:34:55.421Z,15.99
2023-04-16T08:35:52.158Z,16.37
2023-04-16T08:36:48.819Z,15.94
2023-04-16T08:37:45.638Z,16.37
2023-04-16T08:38:42.390Z,16.16
2023-04-16T08:39:39.192Z,16.45
2023-04-16T08:40:39.984Z,16.56
2023-04-16T08:41:40.828Z,16.52
2023-04-16T08:42:53.768Z,16.72
2023-04-16T08:43:54.417Z,16.99
2023-04-16T08:44:59.073Z,16.91
2023-04-16T08:45:57.051Z,16.77
2023-04-16T08:46:59.236Z,16.73
2023-04-16T08:47:56.292Z,16.78
2023-04-16T08:48:58.609Z,16.38
2023-04-16T08:49:59.340Z,16.38
2023-04-16T08:50:56.973Z,16.39
2023-04-16T08:51:55.919Z,16.64
2023-04-16T08:52:58.855Z,16.47
2023-04-16T08:54:02.993Z,16.82
2023-04-16T08:55:14.043Z,17.09
2023-04-16T08:56:12.719Z,17.58
2023-04-16T08:57:12.558Z,17.71
2023-04-16T08:58:32.248Z,17.33
2023-04-16T08:59:29.768Z,16.65
2023-04-16T09:00:28.424Z,16.67
2023-04-16T09:01:28.728Z,17.23
2023-04-16T09:02:27.161Z,17.69
2023-04-16T09:03:24.504Z,17.46
2023-04-16T09:04:22.746Z,18.26
2023-04-16T09:05:22.808Z,18.26
2023-04-16T09:06:19.783Z,18.17
2023-04-16T09:07:17.676Z,18.05
2023-04-16T09:08:14.579Z,17.55
2023-04-16T09:09:13.051Z,17.35
2023-04-16T09:10:10.715Z,17.24
2023-04-16T09:11:07.722Z,17.11
2023-04-16T09:12:06.266Z,17.08
2023-04-16T09:13:03.008Z,17.26
2023-04-16T09:14:01.082Z,17.43
2023-04-16T09:15:01.205Z,17.50
2023-04-16T09:15:58.543Z,17.48
2023-04-16T09:16:56.240Z,17.39
2023-04-16T09:17:53.689Z,17.21
2023-04-16T09:18:52.098Z,17.30
2023-04-16T09:19:49.013Z,17.05
2023-04-16T09:20:46.171Z,16.96
2023-04-16T09:21:47.659Z,17.39
2023-04-16T09:22:44.832Z,17.43
2023-04-16T09:23:42.150Z,17.33
2023-04-16T09:24:39.267Z,16.91
2023-04-16T09:25:37.240Z,17.10
2023-04-16T09:26:34.662Z,17.10
2023-04-16T09:27:31.968Z,16.43
2023-04-16T09:28:51.332Z,17.09
2023-04-16T09:29:49.716Z,16.50
2023-04-16T09:30:46.455Z,16.25
2023-04-16T09:32:03.028Z,16.65
2023-04-16T09:33:23.460Z,16.77
2023-04-16T09:34:21.032Z,17.25
2023-04-16T09:35:21.119Z,17.42
2023-04-16T09:36:23.617Z,17.43
2023-04-16T09:37:20.620Z,17.53
2023-04-16T09:38:17.547Z,17.66
2023-04-16T09:39:20.250Z,17.64
2023-04-16T09:40:24.799Z,17.76
2023-04-16T09:41:29.864Z,17.76
2023-04-16T09:42:29.821Z,17.44
2023-04-16T09:43:27.228Z,17.66
2023-04-16T09:44:35.583Z,17.73
2023-04-16T09:45:32.877Z,17.78
2023-04-16T09:46:30.486Z,17.58
2023-04-16T09:47:41.267Z,17.77
2023-04-16T09:48:38.363Z,17.48
2023-04-16T09:49:38.539Z,17.58
2023-04-16T09:50:35.283Z,17.49
2023-04-16T09:51:37.852Z,17.58
2023-04-16T09:52:38.146Z,17.54
2023-04-16T09:53:35.279Z,17.12
2023-04-16T09:54:32.013Z,17.41
2023-04-16T09:55:28.792Z,17.65
2023-04-16T09:56:30.410Z,17.69
2023-04-16T09:57:27.195Z,17.76
2023-04-16T09:58:27.416Z,17.48
2023-04-16T09:59:24.429Z,17.51
2023-04-16T10:00:23.524Z,17.65
2023-04-16T10:01:20.688Z,17.79
2023-04-16T10:02:17.516Z,17.87
2023-04-16T10:03:14.430Z,17.53
2023-04-16T10:04:11.497Z,17.44
2023-04-16T10:05:08.578Z,17.33
2023-04-16T10:06:15.967Z,17.86
2023-04-16T10:07:13.360Z,17.48
2023-04-16T10:08:14.464Z,17.62
2023-04-16T10:09:11.382Z,17.91
2023-04-16T10:10:08.828Z,17.76
2023-04-16T10:11:05.829Z,18.11
2023-04-16T10:12:02.868Z,18.05
2023-04-16T10:13:00.546Z,18.29
2023-04-16T10:13:57.231Z,18.31
2023-04-16T10:14:53.991Z,18.09
2023-04-16T10:15:51.199Z,18.29
2023-04-16T10:16:48.393Z,18.32
2023-04-16T10:17:45.880Z,17.54
2023-04-16T10:18:44.755Z,17.82
2023-04-16T10:19:42.383Z,18.04
2023-04-16T10:20:39.294Z,17.73
2023-04-16T10:21:36.296Z,17.53
2023-04-16T10:22:33.159Z,17.25
2023-04-16T10:23:29.977Z,17.70
2023-04-16T10:24:26.937Z,17.86
2023-04-16T10:25:25.308Z,17.61
2023-04-16T10:26:22.473Z,17.74
2023-04-16T10:27:19.877Z,17.84
2023-04-16T10:28:16.947Z,17.42
2023-04-16T10:29:13.697Z,18.01
2023-04-16T10:30:11.770Z,18.33
2023-04-16T10:31:09.794Z,18.28
2023-04-16T10:32:06.999Z,18.28
2023-04-16T10:33:06.140Z,16.62
2023-04-16T10:34:04.640Z,17.16
2023-04-16T10:35:01.430Z,17.47
2023-04-16T10:36:22.897Z,17.67
2023-04-16T10:37:19.668Z,17.16
2023-04-16T10:38:27.249Z,17.09
2023-04-16T10:39:27.209Z,17.35
2023-04-16T10:40:28.195Z,17.31
2023-04-16T10:41:26.987Z,17.33
2023-04-16T10:42:23.828Z,17.76
2023-04-16T10:43:21.040Z,17.93
2023-04-16T10:44:19.336Z,17.68
2023-04-16T10:45:16.781Z,18.13
2023-04-16T10:46:22.981Z,18.43
2023-04-16T10:47:19.827Z,18.12
2023-04-16T10:48:19.149Z,18.50
2023-04-16T10:49:21.335Z,18.36
2023-04-16T10:50:18.212Z,18.29
2023-04-16T10:51:36.461Z,18.61
2023-04-16T10:52:33.243Z,18.73
2023-04-16T10:53:30.008Z,18.58
2023-04-16T10:54:31.336Z,18.36
2023-04-16T10:55:28.134Z,18.14
2023-04-16T10:56:31.865Z,18.50
2023-04-16T10:57:29.808Z,18.26
2023-04-16T10:58:30.700Z,18.26
2023-04-16T10:59:32.192Z,17.98
2023-04-16T11:00:28.953Z,17.81
2023-04-16T11:01:36.178Z,17.88
2023-04-16T11:02:33.251Z,18.06
2023-04-16T11:03:32.163Z,18.31
2023-04-16T11:04:35.910Z,18.30
2023-04-16T11:05:53.060Z,18.54
2023-04-16T11:07:06.360Z,18.69
2023-04-16T11:08:14.220Z,18.66
2023-04-16T11:09:49.773Z,18.38
2023-04-16T11:10:47.182Z,18.42
2023-04-16T11:11:43.902Z,18.51
2023-04-16T11:12:44.914Z,18.55
2023-04-16T11:13:46.274Z,18.81
2023-04-16T11:14:43.594Z,18.92
2023-04-16T11:15:40.679Z,18.81
2023-04-16T11:16:40.760Z,18.49
2023-04-16T11:17:44.270Z,18.65
2023-04-16T11:18:48.821Z,18.76
2023-04-16T11:19:48.767Z,18.42
2023-04-16T11:20:45.775Z,18.94
2023-04-16T11:21:45.329Z,18.80
2023-04-16T11:22:43.264Z,18.26
2023-04-16T11:23:51.814Z,18.31
2023-04-16T11:24:55.147Z,18.30
2023-04-16T11:25:57.156Z,18.46
2023-04-16T11:26:53.941Z,18.58
2023-04-16T11:27:52.271Z,18.56
2023-04-16T11:28:49.032Z,18.42
2023-04-16T11:29:47.458Z,17.60
2023-04-16T11:30:44.349Z,18.30
2023-04-16T11:31:41.212Z,18.49
2023-04-16T11:32:39.571Z,18.27
2023-04-16T11:33:37.981Z,18.41
2023-04-16T11:34:35.169Z,18.64
2023-04-16T11:35:32.340Z,18.66
2023-04-16T11:36:42.318Z,18.38
2023-04-16T11:37:39.293Z,18.25
2023-04-16T11:38:37.765Z,18.37
2023-04-16T11:39:34.487Z,18.25
2023-04-16T11:40:31.728Z,18.09
2023-04-16T11:41:28.463Z,17.56
2023-04-16T11:42:27.041Z,18.39
2023-04-16T11:43:23.810Z,18.23
2023-04-16T11:44:26.185Z,18.34
2023-04-16T11:45:22.960Z,18.46
2023-04-16T11:46:27.323Z,18.32
2023-04-16T11:47:25.210Z,18.52
2023-04-16T11:48:22.372Z,18.36
2023-04-16T11:49:31.488Z,18.42
2023-04-16T11:50:28.943Z,18.54
2023-04-16T11:51:25.842Z,18.67
2023-04-16T11:52:32.885Z,18.48
2023-04-16T11:53:29.627Z,18.55
2023-04-16T11:54:26.414Z,18.51
2023-04-16T11:55:24.453Z,18.61
2023-04-16T11:56:28.564Z,18.71
2023-04-16T11:57:29.435Z,18.58
2023-04-16T11:58:26.217Z,18.29
2023-04-16T11:59:23.778Z,18.59
2023-04-16T12:00:23.108Z,18.28
2023-04-16T12:01:21.710Z,18.49
2023-04-16T12:02:33.853Z,18.44
2023-04-16T12:03:44.306Z,18.51
2023-04-16T12:04:41.204Z,17.76
2023-04-16T12:05:39.782Z,18.44
2023-04-16T12:06:36.574Z,18.63
2023-04-16T12:07:44.735Z,18.75
2023-04-16T12:08:42.857Z,18.43
2023-04-16T12:09:41.947Z,18.58
2023-04-16T12:10:54.055Z,18.97
2023-04-16T12:11:50.937Z,18.86
2023-04-16T12:12:47.685Z,18.65
2023-04-16T12:14:07.785Z,18.83
2023-04-16T12:15:05.121Z,18.51
2023-04-16T12:16:02.104Z,18.68
2023-04-16T12:17:21.039Z,19.03
2023-04-16T12:18:20.375Z,19.02
2023-04-16T12:19:18.376Z,18.80
2023-04-16T12:20:16.227Z,19.01
2023-04-16T12:21:13.006Z,18.67
2023-04-16T12:22:09.742Z,18.83
2023-04-16T12:23:06.839Z,18.79
2023-04-16T12:24:03.883Z,19.43
2023-04-16T12:25:03.816Z,19.67
2023-04-16T12:26:10.885Z,19.72
2023-04-16T12:27:09.037Z,19.61
2023-04-16T12:28:06.304Z,19.63
2023-04-16T12:29:24.664Z,19.51
2023-04-16T12:30:26.832Z,19.34
2023-04-16T12:31:38.914Z,19.44